Adventure of The Seas — C6SA3 — position and weather

sailwx.info

Track history (hours):
 
Tides and Currents Weather Stations Pressure Air Temp Water Temp Dewpoint Dewpoint Depression Visibility Wind Speed Wind Dir Waves Ship Positions

Adventure of The Seas

Operator: Royal Caribbean Cruises Ltd

Last reported at 2014-Oct-23 16:26 UTC. Time now 2014-Oct-23 19:10 UTC.
Position N 38°37' W 009°23'.

Type: Passenger vessel. MMSI: 311263000.

Date/timePositionNaut miles runAvg speedWind from/ knotsBaromVisibWave heightAir tempDewpointWater temp
2014-Oct-23 16:26N 38°37' W 009°23'1112.3
2014-Oct-23 15:34N 38°41' W 009°10'2 2.3
2014-Oct-23 14:32N 38°42' W 009°08'0 0.0
2014-Oct-23 13:32N 38°42' W 009°08'0 0.0
2014-Oct-23 12:32N 38°42' W 009°08'0 0.0
2014-Oct-23 11:32N 38°42' W 009°08'0 0.0
2014-Oct-23 10:32N 38°42' W 009°08'0 0.0
2014-Oct-23 09:32N 38°42' W 009°08'0 0.0
2014-Oct-23 08:32N 38°42' W 009°08'0 0.0
2014-Oct-23 07:32N 38°42' W 009°08'0 0.0
2014-Oct-23 06:32N 38°42' W 009°08'0 0.4
2014-Oct-23 05:33N 38°42' W 009°07'1110.6
2014-Oct-23 04:33N 38°39' W 009°20'1312.5
2014-Oct-23 03:33N 38°26' W 009°23'1414.0
2014-Oct-23 02:33N 38°12' W 009°24'1413.7
2014-Oct-23 01:33N 37°59' W 009°23'1414.2
2014-Oct-23 00:33N 37°44' W 009°22'1414.6
2014-Oct-22 23:33N 37°30' W 009°22'1414.1
2014-Oct-22 22:33N 37°16' W 009°21'1414.3
2014-Oct-22 21:33N 37°01' W 009°21'1413.9
2014-Oct-22 20:33N 36°48' W 009°15'2014.2
2014-Oct-22 19:07N 36°39' W 008°53'915.5
2014-Oct-22 18:33N 36°37' W 008°42'15715.4
2014-Oct-22 08:25N 35°58' W 005°34'1113.4
2014-Oct-22 07:33N 36°01' W 005°21'21614.9
2014-Oct-21 17:06N 37°23' W 001°11'815.7
2014-Oct-21 16:34N 37°29' W 001°04'9 0.7
2014-Oct-21 04:16N 37°32' W 000°53'811.3
2014-Oct-21 03:33N 37°32' W 000°43'1111.5
2014-Oct-21 02:33N 37°37' W 000°30'1211.7
2014-Oct-21 01:33N 37°47' W 000°23'1212.4
2014-Oct-21 00:32N 37°57' W 000°14'1312.8
2014-Oct-20 23:32N 38°08' W 000°05'1313.2
2014-Oct-20 22:33N 38°19' E 000°04'1413.5
2014-Oct-20 21:33N 38°30' E 000°14'6210.3
2014-Oct-20 15:29N 39°28' W 000°18'0 0.0
2014-Oct-20 14:23N 39°28' W 000°18'0 0.0
2014-Oct-20 13:29N 39°28' W 000°18'0 0.0
2014-Oct-20 12:29N 39°28' W 000°18'0 0.0
2014-Oct-20 11:32N 39°28' W 000°18'0 0.0
2014-Oct-20 10:32N 39°28' W 000°18'0 0.0
2014-Oct-20 09:32N 39°28' W 000°18'0 0.0
2014-Oct-20 08:32N 39°28' W 000°18'0 0.0
2014-Oct-20 07:32N 39°28' W 000°18'0 0.0
2014-Oct-20 06:32N 39°28' W 000°18'1 0.9
2014-Oct-20 05:33N 39°27' W 000°18'11 8.1
2014-Oct-20 04:14N 39°25' W 000°04'8110.5
2014-Oct-19 20:30N 39°25' E 001°41'6 5.2
2014-Oct-19 19:23N 39°25' E 001°49'11 9.4
2014-Oct-19 18:15N 39°25' E 002°02'8 9.5
2014-Oct-19 17:22N 39°25' E 002°13'1010.1
2014-Oct-19 16:22N 39°25' E 002°27'8 8.8
2014-Oct-19 15:27N 39°29' E 002°36'40 2.8
2014-Oct-19 01:15N 40°05' E 002°14'2414.1
2014-Oct-18 23:33N 40°29' E 002°13'1715.3
2014-Oct-18 22:28N 40°46' E 002°12'1313.5
2014-Oct-18 21:31N 40°59' E 002°12'2014.5
2014-Oct-18 20:09N 41°18' E 002°10'3 0.6
2014-Oct-18 15:14N 41°22' E 002°11'0 0.0
2014-Oct-18 14:32N 41°22' E 002°11'0 0.0
2014-Oct-18 13:20N 41°22' E 002°11'0 0.0
2014-Oct-18 12:32N 41°22' E 002°11'0 0.0
2014-Oct-18 11:14N 41°22' E 002°11'0 0.0
2014-Oct-18 10:32N 41°22' E 002°11'0 0.0
2014-Oct-18 07:20N 41°22' E 002°11'0 0.0
2014-Oct-18 06:32N 41°22' E 002°11'1 0.8
2014-Oct-18 05:33N 41°21' E 002°10'7 7.3
2014-Oct-18 04:33N 41°18' E 002°19'1918.6
2014-Oct-18 03:33N 41°27' E 002°40'11819.6
2014-Oct-17 21:34N 42°23' E 004°60'2121.1
2014-Oct-17 20:34N 42°32' E 005°25'4321.5
2014-Oct-17 18:33N 42°53' E 006°17'2121.3
2014-Oct-17 17:34N 43°05' E 006°40'2121.2
2014-Oct-17 16:34N 43°24' E 006°55'10 9.3
2014-Oct-17 15:32N 43°32' E 007°01'0 0.0
2014-Oct-17 13:32N 43°32' E 007°01'0 0.0
2014-Oct-17 12:31N 43°32' E 007°01'0 0.0
2014-Oct-17 11:26N 43°32' E 007°01'0 0.0
2014-Oct-17 10:26N 43°32' E 007°01'0 0.0
2014-Oct-17 09:20N 43°32' E 007°01'0 0.0
2014-Oct-17 08:32N 43°32' E 007°01'0 0.0
2014-Oct-17 07:32N 43°32' E 007°01'0 0.0
2014-Oct-17 06:32N 43°32' E 007°01'6 6.1
2014-Oct-17 05:33N 43°27' E 006°58'1919.1
2014-Oct-17 04:33N 43°09' E 006°48'554155.4
2014-Oct-17 01:00N 42°18' W 005°42'445100.4 190 / 151014.0 1.022.0 22.0
2014-Oct-16 20:33N 41°21' E 004°11'2221.1
2014-Oct-16 19:32N 41°07' E 003°49'1818.1
2014-Oct-16 18:33N 40°55' E 003°32'2020.2
2014-Oct-16 17:34N 40°42' E 003°12'2020.1
2014-Oct-16 16:33N 40°28' E 002°52'2020.1
2014-Oct-16 15:33N 40°15' E 002°32'2020.3
2014-Oct-16 14:33N 40°01' E 002°12'2020.3
2014-Oct-16 13:33N 39°48' E 001°52'161284.9
2014-Oct-16 13:00N 39°36' W 001°36'145327.4
2014-Oct-16 12:33N 39°35' E 001°33'2019.8
2014-Oct-16 11:33N 39°22' E 001°13'9619.2
2014-Oct-16 06:33N 38°06' W 000°02'1919.1
2014-Oct-16 05:33N 37°50' W 000°15'2019.3
2014-Oct-16 04:32N 37°34' W 000°30'1919.7
2014-Oct-16 03:33N 37°21' W 000°48'23119.3
2014-Oct-15 15:33N 36°05' W 005°20'4 4.4
2014-Oct-15 14:33N 36°09' W 005°22'0 0.0
2014-Oct-15 12:33N 36°09' W 005°22'0 0.0
2014-Oct-15 11:33N 36°09' W 005°22'0 0.0
2014-Oct-15 10:30N 36°09' W 005°22'0 0.0
2014-Oct-15 09:33N 36°09' W 005°22'0 0.1
2014-Oct-15 08:33N 36°09' W 005°22'1010.3
2014-Oct-15 07:33N 35°59' W 005°25'4327.5
2014-Oct-15 06:00N 35°54' W 006°18'9122.6 190 / 261015.0 5.4 2.021.0 22.0
2014-Oct-15 02:00N 36°18' W 008°06'   230 / 51015.0 22.0
Track history (hours):
 
Tides and Currents Weather Stations Pressure Air Temp Water Temp Dewpoint Dewpoint Depression Visibility Wind Speed Wind Dir Waves Ship Positions

Adventure of The Seas

Operator: Royal Caribbean Cruises Ltd

Last reported at 2014-Oct-23 16:26 UTC. Time now 2014-Oct-23 19:10 UTC.
Position N 38°37' W 009°23'.

Type: Passenger vessel. MMSI: 311263000.

Date/timePositionNaut miles runAvg speedWind from/ knotsBaromVisibWave heightAir tempDewpointWater temp
2014-Oct-23 16:26N 38°37' W 009°23'1112.3
2014-Oct-23 15:34N 38°41' W 009°10'2 2.3
2014-Oct-23 14:32N 38°42' W 009°08'0 0.0
2014-Oct-23 13:32N 38°42' W 009°08'0 0.0
2014-Oct-23 12:32N 38°42' W 009°08'0 0.0
2014-Oct-23 11:32N 38°42' W 009°08'0 0.0
2014-Oct-23 10:32N 38°42' W 009°08'0 0.0
2014-Oct-23 09:32N 38°42' W 009°08'0 0.0
2014-Oct-23 08:32N 38°42' W 009°08'0 0.0
2014-Oct-23 07:32N 38°42' W 009°08'0 0.0
2014-Oct-23 06:32N 38°42' W 009°08'0 0.4
2014-Oct-23 05:33N 38°42' W 009°07'1110.6
2014-Oct-23 04:33N 38°39' W 009°20'1312.5
2014-Oct-23 03:33N 38°26' W 009°23'1414.0
2014-Oct-23 02:33N 38°12' W 009°24'1413.7
2014-Oct-23 01:33N 37°59' W 009°23'1414.2
2014-Oct-23 00:33N 37°44' W 009°22'1414.6
2014-Oct-22 23:33N 37°30' W 009°22'1414.1
2014-Oct-22 22:33N 37°16' W 009°21'1414.3
2014-Oct-22 21:33N 37°01' W 009°21'1413.9
2014-Oct-22 20:33N 36°48' W 009°15'2014.2
2014-Oct-22 19:07N 36°39' W 008°53'915.5
2014-Oct-22 18:33N 36°37' W 008°42'15715.4
2014-Oct-22 08:25N 35°58' W 005°34'1113.4
2014-Oct-22 07:33N 36°01' W 005°21'21614.9
2014-Oct-21 17:06N 37°23' W 001°11'815.7
2014-Oct-21 16:34N 37°29' W 001°04'9 0.7
2014-Oct-21 04:16N 37°32' W 000°53'811.3
2014-Oct-21 03:33N 37°32' W 000°43'1111.5
2014-Oct-21 02:33N 37°37' W 000°30'1211.7
2014-Oct-21 01:33N 37°47' W 000°23'1212.4
2014-Oct-21 00:32N 37°57' W 000°14'1312.8
2014-Oct-20 23:32N 38°08' W 000°05'1313.2
2014-Oct-20 22:33N 38°19' E 000°04'1413.5
2014-Oct-20 21:33N 38°30' E 000°14'6210.3
2014-Oct-20 15:29N 39°28' W 000°18'0 0.0
2014-Oct-20 14:23N 39°28' W 000°18'0 0.0
2014-Oct-20 13:29N 39°28' W 000°18'0 0.0
2014-Oct-20 12:29N 39°28' W 000°18'0 0.0
2014-Oct-20 11:32N 39°28' W 000°18'0 0.0
2014-Oct-20 10:32N 39°28' W 000°18'0 0.0
2014-Oct-20 09:32N 39°28' W 000°18'0 0.0
2014-Oct-20 08:32N 39°28' W 000°18'0 0.0
2014-Oct-20 07:32N 39°28' W 000°18'0 0.0
2014-Oct-20 06:32N 39°28' W 000°18'1 0.9
2014-Oct-20 05:33N 39°27' W 000°18'11 8.1
2014-Oct-20 04:14N 39°25' W 000°04'8110.5
2014-Oct-19 20:30N 39°25' E 001°41'6 5.2
2014-Oct-19 19:23N 39°25' E 001°49'11 9.4
2014-Oct-19 18:15N 39°25' E 002°02'8 9.5
2014-Oct-19 17:22N 39°25' E 002°13'1010.1
2014-Oct-19 16:22N 39°25' E 002°27'8 8.8
2014-Oct-19 15:27N 39°29' E 002°36'40 2.8
2014-Oct-19 01:15N 40°05' E 002°14'2414.1
2014-Oct-18 23:33N 40°29' E 002°13'1715.3
2014-Oct-18 22:28N 40°46' E 002°12'1313.5
2014-Oct-18 21:31N 40°59' E 002°12'2014.5
2014-Oct-18 20:09N 41°18' E 002°10'3 0.6
2014-Oct-18 15:14N 41°22' E 002°11'0 0.0
2014-Oct-18 14:32N 41°22' E 002°11'0 0.0
2014-Oct-18 13:20N 41°22' E 002°11'0 0.0
2014-Oct-18 12:32N 41°22' E 002°11'0 0.0
2014-Oct-18 11:14N 41°22' E 002°11'0 0.0
2014-Oct-18 10:32N 41°22' E 002°11'0 0.0
2014-Oct-18 07:20N 41°22' E 002°11'0 0.0
2014-Oct-18 06:32N 41°22' E 002°11'1 0.8
2014-Oct-18 05:33N 41°21' E 002°10'7 7.3
2014-Oct-18 04:33N 41°18' E 002°19'1918.6
2014-Oct-18 03:33N 41°27' E 002°40'11819.6
2014-Oct-17 21:34N 42°23' E 004°60'2121.1
2014-Oct-17 20:34N 42°32' E 005°25'4321.5
2014-Oct-17 18:33N 42°53' E 006°17'2121.3
2014-Oct-17 17:34N 43°05' E 006°40'2121.2
2014-Oct-17 16:34N 43°24' E 006°55'10 9.3
2014-Oct-17 15:32N 43°32' E 007°01'0 0.0
2014-Oct-17 13:32N 43°32' E 007°01'0 0.0
2014-Oct-17 12:31N 43°32' E 007°01'0 0.0
2014-Oct-17 11:26N 43°32' E 007°01'0 0.0
2014-Oct-17 10:26N 43°32' E 007°01'0 0.0
2014-Oct-17 09:20N 43°32' E 007°01'0 0.0
2014-Oct-17 08:32N 43°32' E 007°01'0 0.0
2014-Oct-17 07:32N 43°32' E 007°01'0 0.0
2014-Oct-17 06:32N 43°32' E 007°01'6 6.1
2014-Oct-17 05:33N 43°27' E 006°58'1919.1
2014-Oct-17 04:33N 43°09' E 006°48'554155.4
2014-Oct-17 01:00N 42°18' W 005°42'445100.4 190 / 151014.0 1.022.0 22.0
2014-Oct-16 20:33N 41°21' E 004°11'2221.1
2014-Oct-16 19:32N 41°07' E 003°49'1818.1
2014-Oct-16 18:33N 40°55' E 003°32'2020.2
2014-Oct-16 17:34N 40°42' E 003°12'2020.1
2014-Oct-16 16:33N 40°28' E 002°52'2020.1
2014-Oct-16 15:33N 40°15' E 002°32'2020.3
2014-Oct-16 14:33N 40°01' E 002°12'2020.3
2014-Oct-16 13:33N 39°48' E 001°52'161284.9
2014-Oct-16 13:00N 39°36' W 001°36'145327.4
2014-Oct-16 12:33N 39°35' E 001°33'2019.8
2014-Oct-16 11:33N 39°22' E 001°13'9619.2
2014-Oct-16 06:33N 38°06' W 000°02'1919.1
2014-Oct-16 05:33N 37°50' W 000°15'2019.3
2014-Oct-16 04:32N 37°34' W 000°30'1919.7
2014-Oct-16 03:33N 37°21' W 000°48'23119.3
2014-Oct-15 15:33N 36°05' W 005°20'4 4.4
2014-Oct-15 14:33N 36°09' W 005°22'0 0.0
2014-Oct-15 12:33N 36°09' W 005°22'0 0.0
2014-Oct-15 11:33N 36°09' W 005°22'0 0.0
2014-Oct-15 10:30N 36°09' W 005°22'0 0.0
2014-Oct-15 09:33N 36°09' W 005°22'0 0.1
2014-Oct-15 08:33N 36°09' W 005°22'1010.3
2014-Oct-15 07:33N 35°59' W 005°25'4327.5
2014-Oct-15 06:00N 35°54' W 006°18'9122.6 190 / 261015.0 5.4 2.021.0 22.0
2014-Oct-15 02:00N 36°18' W 008°06'   230 / 51015.0 22.0

Dump ship's entire track history